Time;durP1;ratioP1;P1;durP2;ratioP2;P2;SDS_P1;SDS_P2;PMS_P1;PMS_P2;Temp;Humidity;BMP_temperature;BMP_pressure;BME280_temperature;BME280_humidity;BME280_pressure;Samples;Min_cycle;Max_cycle;Signal;HPM_P1;HPM_P2
2021/11/30 00:11:14;;;;;;;9.47;3.70;;;4.70;99.90;;;;;;5081704;28;20447;-87
2021/11/30 00:23:59;;;;;;;6.13;3.87;;;4.70;99.90;;;;;;5081819;28;20202;-88
2021/11/30 00:29:58;;;;;;;7.20;3.67;;;4.80;99.90;;;;;;5081268;28;20221;-87
2021/11/30 00:38:46;;;;;;;9.57;4.40;;;4.70;99.90;;;;;;5080860;28;20222;-88
2021/11/30 00:45:09;;;;;;;7.50;3.90;;;4.80;99.90;;;;;;5081191;28;20183;-88
2021/11/30 00:51:05;;;;;;;8.27;3.67;;;4.90;99.90;;;;;;5081321;28;20234;-85
2021/11/30 01:03:50;;;;;;;6.43;3.03;;;4.70;99.90;;;;;;5081023;28;20182;-86
2021/11/30 01:57:11;;;;;;;4.97;3.17;;;5.10;99.90;;;;;;5038421;28;20211;-87
2021/11/30 02:07:20;;;;;;;6.60;2.97;;;5.00;99.90;;;;;;5153896;23;20237;-85
2021/11/30 02:13:47;;;;;;;6.40;3.27;;;5.10;99.90;;;;;;5079353;28;20191;-87
2021/11/30 02:16:22;;;;;;;7.93;3.73;;;5.20;99.90;;;;;;5077643;28;20190;-87
2021/11/30 02:43:19;;;;;;;6.47;3.67;;;5.50;99.90;;;;;;5073434;28;20213;-86
2021/11/30 02:46:30;;;;;;;7.40;3.90;;;5.60;99.90;;;;;;5079067;28;20196;-86
2021/11/30 03:02:43;;;;;;;7.20;5.13;;;5.70;99.90;;;;;;5057814;28;20422;-86
2021/11/30 03:08:55;;;;;;;6.83;4.53;;;5.70;99.90;;;;;;5058425;28;20204;-87
2021/11/30 03:34:01;;;;;;;6.17;5.63;;;5.70;99.90;;;;;;5057522;28;20214;-85
2021/11/30 03:47:04;;;;;;;7.77;6.83;;;5.80;99.90;;;;;;5058002;28;20182;-84
2021/11/30 03:56:44;;;;;;;11.30;8.37;;;5.80;99.90;;;;;;5058424;28;20198;-86
2021/11/30 03:59:21;;;;;;;12.13;7.87;;;5.80;99.90;;;;;;5057295;28;20231;-86
2021/11/30 04:02:09;;;;;;;11.70;8.50;;;5.80;99.90;;;;;;5057346;28;20183;-86
2021/11/30 04:05:11;;;;;;;13.27;11.93;;;5.90;99.90;;;;;;5055405;28;20485;-86
2021/11/30 04:11:12;;;;;;;10.70;9.50;;;6.00;99.90;;;;;;5056692;28;20245;-87
2021/11/30 04:34:23;;;;;;;10.63;8.57;;;6.20;99.90;;;;;;5041680;28;20198;-86
2021/11/30 04:43:39;;;;;;;15.43;10.60;;;6.30;99.90;;;;;;5039478;28;20204;-87
2021/11/30 04:52:38;;;;;;;14.07;10.67;;;6.30;99.90;;;;;;5029981;28;20191;-86
2021/11/30 04:58:27;;;;;;;15.50;10.90;;;6.40;99.90;;;;;;5040504;28;20294;-87
2021/11/30 05:07:11;;;;;;;14.33;11.07;;;6.50;99.90;;;;;;5040747;28;20196;-87
2021/11/30 05:26:35;;;;;;;13.37;11.10;;;6.70;99.90;;;;;;5038952;28;20211;-86
2021/11/30 05:29:59;;;;;;;18.33;15.40;;;6.80;99.90;;;;;;5037503;28;20412;-87
2021/11/30 05:40:00;;;;;;;14.13;9.67;;;6.90;99.90;;;;;;5030776;28;20299;-85
2021/11/30 05:42:54;;;;;;;13.03;9.90;;;7.00;99.90;;;;;;5036719;28;20199;-86
2021/11/30 05:45:36;;;;;;;11.30;10.07;;;7.00;99.90;;;;;;5038264;28;20187;-86
2021/11/30 05:48:50;;;;;;;13.57;10.40;;;7.00;99.90;;;;;;5037354;28;20203;-84
2021/11/30 05:54:36;;;;;;;12.77;10.50;;;7.20;99.90;;;;;;5038064;28;20195;-86
2021/11/30 06:00:50;;;;;;;11.67;9.57;;;7.20;99.90;;;;;;5033232;28;20238;-86
2021/11/30 06:03:55;;;;;;;12.10;9.53;;;7.20;99.90;;;;;;5017469;28;20212;-86
2021/11/30 06:07:17;;;;;;;10.80;9.00;;;7.20;99.90;;;;;;5018833;28;20272;-86
2021/11/30 06:09:51;;;;;;;8.73;7.60;;;7.20;99.90;;;;;;5019042;28;20188;-86
2021/11/30 06:19:13;;;;;;;10.17;7.37;;;7.30;99.90;;;;;;5016448;28;20192;-86
2021/11/30 06:25:35;;;;;;;12.13;6.67;;;7.40;99.90;;;;;;5020011;28;20235;-84
2021/11/30 06:35:44;;;;;;;6.37;5.70;;;7.50;99.90;;;;;;5017490;28;20208;-84
2021/11/30 06:59:00;;;;;;;8.27;6.27;;;7.80;99.90;;;;;;5018641;28;20203;-85
2021/11/30 07:02:12;;;;;;;6.00;5.40;;;7.80;99.90;;;;;;5018268;28;20220;-83
2021/11/30 07:33:35;;;;;;;7.40;6.70;;;8.10;99.90;;;;;;5187218;22;20253;-84
2021/11/30 07:43:58;;;;;;;9.27;8.33;;;8.30;99.90;;;;;;5071170;28;20225;-85
2021/11/30 07:49:37;;;;;;;10.57;8.87;;;8.30;99.90;;;;;;5111373;28;20239;-85
2021/11/30 07:52:14;;;;;;;9.33;7.83;;;8.30;99.90;;;;;;5112716;27;20201;-86
2021/11/30 08:18:39;;;;;;;13.68;10.60;;;8.30;99.90;;;;;;5111905;27;20435;-85
2021/11/30 08:29:25;;;;;;;15.20;11.03;;;8.40;99.90;;;;;;4206652;26;20244;-85
2021/11/30 08:32:04;;;;;;;13.47;12.03;;;8.50;99.90;;;;;;5070984;28;20206;-84
2021/11/30 08:34:45;;;;;;;15.27;12.20;;;8.50;99.90;;;;;;5251996;22;20258;-84
2021/11/30 08:49:01;;;;;;;16.47;12.23;;;8.70;99.90;;;;;;5178280;22;20321;-85
2021/11/30 08:51:35;;;;;;;18.47;11.70;;;8.70;99.90;;;;;;5055800;28;20262;-85
2021/11/30 08:57:10;;;;;;;14.23;11.13;;;8.80;99.90;;;;;;5073618;28;20678;-85
2021/11/30 08:59:41;;;;;;;11.43;10.23;;;9.00;99.90;;;;;;5073513;28;20231;-85
2021/11/30 09:02:32;;;;;;;13.18;10.52;;;8.90;99.90;;;;;;5057416;28;20431;-85
2021/11/30 09:05:11;;;;;;;9.43;8.63;;;9.00;99.90;;;;;;5075363;28;20190;-85
2021/11/30 09:36:35;;;;;;;7.73;7.03;;;9.10;99.90;;;;;;5161165;22;20190;-85
2021/11/30 09:39:10;;;;;;;11.93;6.80;;;9.00;99.90;;;;;;5078657;28;20221;-85
2021/11/30 09:48:10;;;;;;;13.23;7.30;;;9.00;99.90;;;;;;5056685;28;20209;-86
2021/11/30 09:54:35;;;;;;;12.50;8.40;;;9.00;99.90;;;;;;5120883;22;20225;-86
2021/11/30 09:57:09;;;;;;;15.33;7.63;;;9.00;99.90;;;;;;5111623;28;20224;-86
2021/11/30 09:59:53;;;;;;;10.40;7.27;;;9.00;99.90;;;;;;5098529;28;20222;-85
2021/11/30 10:05:17;;;;;;;10.93;7.53;;;9.10;99.90;;;;;;5111731;28;20247;-86
2021/11/30 10:08:00;;;;;;;11.50;8.07;;;9.10;99.90;;;;;;5116395;28;20212;-86
2021/11/30 10:10:48;;;;;;;17.17;7.60;;;9.10;99.90;;;;;;5099567;28;20660;-86
2021/11/30 10:26:55;;;;;;;10.27;8.73;;;9.30;99.90;;;;;;5054602;28;20419;-86
2021/11/30 10:29:34;;;;;;;12.27;8.20;;;9.40;99.90;;;;;;5054103;28;20222;-86
2021/11/30 10:32:09;;;;;;;13.83;7.73;;;9.40;99.90;;;;;;5054309;28;20569;-86
2021/11/30 10:34:42;;;;;;;10.93;8.37;;;9.30;99.90;;;;;;5178098;22;20228;-85
2021/11/30 10:37:27;;;;;;;13.00;8.00;;;9.40;99.90;;;;;;5448151;22;20256;-85
2021/11/30 10:42:51;;;;;;;9.53;7.10;;;9.50;99.90;;;;;;5325144;22;20226;-85
2021/11/30 10:51:42;;;;;;;9.03;6.90;;;9.60;99.90;;;;;;5093742;28;20218;-85
2021/11/30 10:57:13;;;;;;;9.63;7.30;;;9.50;99.90;;;;;;5094428;28;20209;-85
2021/11/30 11:00:20;;;;;;;8.33;6.80;;;9.60;99.90;;;;;;5081456;28;20188;-85
2021/11/30 11:13:02;;;;;;;8.67;7.50;;;9.60;99.90;;;;;;5114541;22;20256;-87
2021/11/30 14:07:56;;;;;;;5.87;5.23;;;10.20;99.90;;;;;;5019600;28;20235;-77
2021/11/30 14:10:25;;;;;;;5.33;4.43;;;10.20;99.90;;;;;;5016024;28;20234;-77
2021/11/30 14:12:54;;;;;;;6.67;4.40;;;10.10;99.90;;;;;;5015577;28;20660;-77
2021/11/30 14:15:21;;;;;;;6.17;4.90;;;10.20;99.90;;;;;;5015387;28;20207;-77
2021/11/30 14:17:48;;;;;;;5.87;4.90;;;10.10;99.90;;;;;;5016143;28;20196;-77
2021/11/30 14:20:20;;;;;;;5.20;4.80;;;10.10;99.90;;;;;;5016041;28;20204;-77
2021/11/30 14:22:48;;;;;;;7.43;5.23;;;10.10;99.90;;;;;;5015193;28;20197;-77
2021/11/30 14:25:44;;;;;;;6.03;5.30;;;10.10;99.90;;;;;;5017892;28;20193;-77
2021/11/30 14:28:52;;;;;;;6.00;5.23;;;10.10;99.90;;;;;;5027081;28;20218;-85
2021/11/30 14:31:20;;;;;;;5.30;4.80;;;10.20;99.90;;;;;;5000643;28;20203;-79
2021/11/30 14:33:48;;;;;;;7.70;4.73;;;10.20;99.90;;;;;;5023430;28;20196;-78
2021/11/30 14:36:24;;;;;;;5.23;4.73;;;10.20;99.90;;;;;;5022038;28;20208;-79
2021/11/30 14:38:51;;;;;;;5.50;4.30;;;10.20;99.90;;;;;;5014675;28;20203;-79
2021/11/30 14:41:35;;;;;;;4.93;3.97;;;10.20;99.90;;;;;;5030842;28;20640;-80
2021/11/30 14:44:02;;;;;;;4.87;4.47;;;10.20;99.90;;;;;;5032155;28;20210;-79
2021/11/30 14:46:32;;;;;;;6.20;4.60;;;10.20;99.90;;;;;;5004320;28;20199;-79
2021/11/30 14:48:59;;;;;;;6.20;4.10;;;10.20;99.90;;;;;;5018881;28;20210;-79
2021/11/30 14:51:33;;;;;;;4.77;4.37;;;10.20;99.90;;;;;;5020324;28;20192;-79
2021/11/30 14:54:10;;;;;;;8.25;4.28;;;10.20;99.90;;;;;;5002561;28;20414;-79
2021/11/30 14:56:43;;;;;;;5.93;4.00;;;10.20;99.90;;;;;;5021224;28;20191;-79
2021/11/30 14:59:11;;;;;;;7.17;3.87;;;10.20;99.90;;;;;;5000878;28;20286;-79
2021/11/30 15:01:41;;;;;;;5.83;4.27;;;10.20;99.90;;;;;;5020069;28;20215;-79
2021/11/30 15:04:10;;;;;;;4.07;3.67;;;10.20;99.90;;;;;;5016790;28;20208;-79
2021/11/30 15:06:46;;;;;;;4.07;3.67;;;10.20;99.90;;;;;;5016190;28;20228;-79
2021/11/30 15:09:20;;;;;;;6.17;4.10;;;10.20;99.90;;;;;;5017400;28;20250;-80
2021/11/30 15:11:56;;;;;;;6.10;3.97;;;10.30;99.90;;;;;;4998898;28;20219;-80
2021/11/30 15:14:28;;;;;;;6.60;4.23;;;10.30;99.90;;;;;;5017053;28;20250;-79
2021/11/30 15:16:58;;;;;;;4.47;4.07;;;10.30;99.90;;;;;;5017915;28;20200;-79
2021/11/30 15:19:37;;;;;;;8.97;4.60;;;10.30;99.90;;;;;;5031295;28;20211;-80
2021/11/30 15:22:07;;;;;;;8.03;4.17;;;10.30;99.90;;;;;;5018519;28;20207;-80
2021/11/30 15:24:39;;;;;;;5.40;3.60;;;10.30;99.90;;;;;;5035368;28;20210;-80
2021/11/30 15:27:09;;;;;;;8.93;4.00;;;10.30;99.90;;;;;;5033044;28;20559;-81
2021/11/30 15:29:39;;;;;;;4.80;4.30;;;10.40;99.90;;;;;;5032385;28;20215;-81
2021/11/30 15:32:08;;;;;;;6.53;3.90;;;10.40;99.90;;;;;;5021642;28;20567;-80
2021/11/30 15:34:36;;;;;;;4.97;4.30;;;10.40;99.90;;;;;;5016615;28;20200;-80
2021/11/30 15:37:06;;;;;;;7.60;4.07;;;10.40;99.90;;;;;;5023057;28;20242;-79
2021/11/30 15:39:41;;;;;;;7.37;4.33;;;10.30;99.90;;;;;;5028379;28;20180;-80
2021/11/30 15:42:13;;;;;;;6.37;4.40;;;10.30;99.90;;;;;;5029603;28;20195;-80
2021/11/30 15:44:56;;;;;;;5.33;3.93;;;10.30;99.90;;;;;;5034557;28;20200;-81
2021/11/30 15:47:24;;;;;;;6.17;4.50;;;10.30;99.90;;;;;;5017839;28;20626;-80
2021/11/30 15:49:53;;;;;;;7.47;4.70;;;10.30;99.90;;;;;;5015615;28;20212;-81
2021/11/30 15:52:27;;;;;;;6.10;4.23;;;10.30;99.90;;;;;;5017443;28;20291;-79
2021/11/30 15:54:55;;;;;;;7.03;4.43;;;10.20;99.90;;;;;;5018593;28;20208;-80
2021/11/30 15:57:23;;;;;;;4.97;4.00;;;10.20;99.90;;;;;;5018820;28;20250;-80
2021/11/30 15:59:53;;;;;;;7.63;4.83;;;10.20;99.90;;;;;;5018440;28;20203;-80
2021/11/30 16:02:24;;;;;;;7.53;5.07;;;10.20;99.90;;;;;;5016552;28;20294;-81
2021/11/30 16:04:51;;;;;;;6.47;4.50;;;10.20;99.90;;;;;;5017613;28;20243;-80
2021/11/30 16:07:25;;;;;;;7.80;4.27;;;10.20;99.90;;;;;;5024772;28;20224;-81
2021/11/30 16:09:53;;;;;;;11.30;4.60;;;10.20;99.90;;;;;;5024157;28;20642;-80
2021/11/30 16:12:20;;;;;;;7.07;5.53;;;10.10;99.90;;;;;;5021749;28;20210;-81
2021/11/30 16:14:49;;;;;;;7.60;4.37;;;10.00;99.90;;;;;;5016675;28;20192;-81
2021/11/30 16:17:15;;;;;;;7.40;4.90;;;10.00;99.90;;;;;;5016919;28;20196;-80
2021/11/30 16:19:45;;;;;;;7.70;4.87;;;10.00;99.90;;;;;;5018960;28;20561;-80
2021/11/30 16:22:12;;;;;;;15.77;6.07;;;9.90;99.90;;;;;;5017623;28;20199;-80
2021/11/30 16:24:41;;;;;;;6.37;4.93;;;10.00;99.90;;;;;;5016971;28;20206;-79
2021/11/30 16:27:08;;;;;;;11.47;5.40;;;10.00;99.90;;;;;;5018730;28;20208;-80
2021/11/30 16:29:36;;;;;;;7.30;5.73;;;10.00;99.90;;;;;;5020164;28;20232;-80
2021/11/30 16:32:15;;;;;;;7.37;5.13;;;10.10;99.90;;;;;;5021908;28;20208;-80
2021/11/30 16:34:47;;;;;;;9.57;5.67;;;10.10;99.90;;;;;;5020433;28;20231;-80
2021/11/30 16:37:18;;;;;;;7.17;5.73;;;10.10;99.90;;;;;;5023133;28;20203;-80
2021/11/30 16:39:48;;;;;;;9.20;5.73;;;10.10;99.90;;;;;;5023206;28;20299;-80
2021/11/30 16:42:17;;;;;;;6.80;5.97;;;10.10;99.90;;;;;;5028315;28;20204;-80
2021/11/30 16:44:45;;;;;;;8.57;5.93;;;10.10;99.90;;;;;;5028836;28;20223;-80
2021/11/30 16:47:19;;;;;;;12.93;5.97;;;10.20;99.90;;;;;;5029756;28;20202;-80
2021/11/30 16:49:48;;;;;;;8.93;6.53;;;10.20;99.90;;;;;;5025099;28;20709;-81
2021/11/30 16:52:27;;;;;;;8.30;5.43;;;10.20;99.90;;;;;;5036084;28;20242;-80
2021/11/30 16:55:03;;;;;;;9.43;6.00;;;10.20;99.90;;;;;;5012089;28;20197;-80
2021/11/30 16:57:32;;;;;;;8.80;6.03;;;10.20;99.90;;;;;;5023513;28;20217;-81
2021/11/30 17:00:01;;;;;;;11.80;5.60;;;10.20;99.90;;;;;;5012340;28;20293;-80
2021/11/30 17:02:50;;;;;;;10.83;6.27;;;10.20;99.90;;;;;;5006794;28;20299;-80
2021/11/30 17:05:23;;;;;;;8.77;6.00;;;10.20;99.90;;;;;;5011086;28;20236;-81
2021/11/30 17:08:27;;;;;;;12.17;6.50;;;10.20;99.90;;;;;;5005385;28;20239;-82
2021/11/30 17:10:54;;;;;;;7.07;6.03;;;10.20;99.90;;;;;;5006553;28;20231;-79
2021/11/30 17:13:25;;;;;;;11.10;6.20;;;10.20;99.90;;;;;;5006204;28;20267;-80
2021/11/30 17:15:52;;;;;;;7.97;6.37;;;10.20;99.90;;;;;;4994325;28;20275;-79
2021/11/30 17:18:26;;;;;;;8.97;6.33;;;10.20;99.90;;;;;;5001595;28;20208;-80
2021/11/30 17:20:54;;;;;;;7.97;5.53;;;10.20;99.90;;;;;;5003494;28;20238;-80
2021/11/30 17:23:29;;;;;;;8.40;6.33;;;10.20;99.90;;;;;;5003643;28;20192;-80
2021/11/30 17:25:57;;;;;;;8.47;7.20;;;10.30;99.90;;;;;;5007753;28;20204;-80
2021/11/30 17:28:25;;;;;;;9.57;6.40;;;10.30;99.90;;;;;;5007299;28;20216;-80
2021/11/30 17:30:52;;;;;;;14.73;7.13;;;10.30;99.90;;;;;;4995287;28;20227;-80
2021/11/30 17:33:19;;;;;;;14.40;6.27;;;10.30;99.90;;;;;;5000258;28;20219;-79
2021/11/30 17:35:49;;;;;;;11.13;7.03;;;10.30;99.90;;;;;;5003124;28;20196;-80
2021/11/30 17:38:19;;;;;;;13.70;7.00;;;10.30;99.90;;;;;;4983357;28;20200;-81
2021/11/30 17:40:48;;;;;;;8.10;6.30;;;10.40;99.90;;;;;;4999556;28;20206;-80
2021/11/30 17:43:16;;;;;;;12.27;6.27;;;10.30;99.90;;;;;;4998583;28;20206;-79
2021/11/30 17:45:44;;;;;;;11.47;5.87;;;10.30;99.90;;;;;;4997107;28;20251;-79
2021/11/30 17:48:14;;;;;;;12.03;6.70;;;10.40;99.90;;;;;;4983493;28;20231;-80
2021/11/30 17:50:41;;;;;;;13.13;6.80;;;10.40;99.90;;;;;;5009613;28;20658;-80
2021/11/30 17:53:11;;;;;;;10.80;6.53;;;10.50;99.90;;;;;;5012042;28;20208;-80
2021/11/30 17:55:44;;;;;;;10.70;6.37;;;10.40;99.90;;;;;;5003213;28;20204;-79
2021/11/30 17:58:11;;;;;;;11.30;6.07;;;10.40;99.90;;;;;;4997671;28;20306;-79
2021/11/30 18:00:38;;;;;;;10.07;6.00;;;10.50;99.90;;;;;;4996169;28;20685;-80
2021/11/30 18:03:07;;;;;;;12.37;6.30;;;10.50;99.90;;;;;;4998470;28;20630;-79
2021/11/30 18:05:33;;;;;;;10.23;5.87;;;10.50;99.90;;;;;;4997835;28;20575;-79
2021/11/30 18:08:00;;;;;;;10.00;6.13;;;10.50;99.90;;;;;;4998596;28;20211;-79
2021/11/30 18:10:36;;;;;;;12.60;6.20;;;10.50;99.90;;;;;;4998266;28;20224;-79
2021/11/30 18:13:05;;;;;;;11.80;6.90;;;10.60;99.90;;;;;;4997035;28;20212;-78
2021/11/30 18:15:32;;;;;;;10.53;6.50;;;10.60;99.90;;;;;;4997777;28;20212;-79
2021/11/30 18:18:02;;;;;;;14.97;7.70;;;10.50;99.90;;;;;;4996214;28;20212;-79
2021/11/30 18:20:30;;;;;;;15.73;7.87;;;10.60;99.90;;;;;;4997552;28;20205;-80
2021/11/30 18:22:57;;;;;;;14.30;7.73;;;10.60;99.90;;;;;;4997286;28;20227;-81
2021/11/30 18:25:25;;;;;;;15.80;8.53;;;10.60;99.90;;;;;;5006959;28;20222;-80
2021/11/30 18:27:54;;;;;;;14.10;8.57;;;10.60;99.90;;;;;;5007323;28;20228;-81
2021/11/30 18:30:22;;;;;;;15.80;8.33;;;10.50;99.90;;;;;;4997180;28;20231;-80
2021/11/30 18:32:52;;;;;;;15.57;8.60;;;10.60;99.90;;;;;;4996307;28;20197;-81
2021/11/30 18:35:19;;;;;;;15.67;8.60;;;10.50;99.90;;;;;;4995405;28;20212;-83
2021/11/30 18:37:46;;;;;;;13.27;8.50;;;10.50;99.90;;;;;;5001939;28;20204;-85
2021/11/30 18:40:13;;;;;;;23.90;12.47;;;10.50;99.90;;;;;;4996297;28;20215;-86
2021/11/30 18:42:40;;;;;;;32.17;14.10;;;10.50;99.90;;;;;;5003976;28;20200;-81
2021/11/30 18:45:10;;;;;;;21.67;12.80;;;10.50;99.90;;;;;;5001484;28;20211;-83
2021/11/30 18:47:37;;;;;;;15.37;10.43;;;10.60;99.90;;;;;;4998909;28;20207;-85
2021/11/30 18:50:20;;;;;;;16.10;8.53;;;10.60;99.90;;;;;;5005635;28;20225;-81
2021/11/30 18:52:47;;;;;;;12.73;7.40;;;10.60;99.90;;;;;;5007493;28;20287;-81
2021/11/30 18:55:15;;;;;;;12.73;7.73;;;10.60;99.90;;;;;;5013383;28;20212;-82
2021/11/30 18:57:42;;;;;;;14.10;8.43;;;10.60;99.90;;;;;;5013020;28;20239;-85
2021/11/30 19:00:15;;;;;;;11.73;7.60;;;10.70;99.90;;;;;;5013872;28;20291;-86
2021/11/30 19:02:43;;;;;;;14.50;8.90;;;10.70;99.90;;;;;;5013504;28;20238;-82
2021/11/30 19:05:17;;;;;;;19.70;10.87;;;10.70;99.90;;;;;;5015645;28;20211;-84
2021/11/30 19:07:47;;;;;;;13.17;10.07;;;10.70;99.90;;;;;;5016080;28;20691;-82
2021/11/30 19:10:15;;;;;;;20.27;9.27;;;10.70;99.90;;;;;;5015870;28;20207;-82
2021/11/30 19:12:46;;;;;;;10.97;8.00;;;10.60;99.90;;;;;;5019564;28;20204;-81
2021/11/30 19:15:20;;;;;;;15.13;9.10;;;10.70;99.90;;;;;;5022170;28;20287;-80
2021/11/30 19:17:47;;;;;;;11.27;7.40;;;10.70;99.90;;;;;;5021307;28;20203;-80
2021/11/30 19:20:15;;;;;;;13.13;7.07;;;10.70;99.90;;;;;;5024454;28;20262;-80
2021/11/30 19:22:52;;;;;;;11.47;5.73;;;10.70;99.90;;;;;;5014708;28;20200;-81
2021/11/30 19:25:18;;;;;;;11.37;6.70;;;10.70;99.90;;;;;;5015396;28;20583;-82
2021/11/30 19:27:46;;;;;;;11.23;5.73;;;10.80;99.90;;;;;;5014463;28;20247;-84
2021/11/30 19:30:13;;;;;;;8.53;5.77;;;10.80;99.90;;;;;;5013150;28;20192;-86
2021/11/30 19:32:41;;;;;;;12.07;6.37;;;10.80;99.90;;;;;;5013510;28;20208;-85
2021/11/30 19:35:14;;;;;;;9.60;6.23;;;10.90;99.90;;;;;;5012687;28;20200;-82
2021/11/30 19:37:43;;;;;;;13.90;5.87;;;10.90;99.90;;;;;;5012858;28;20219;-84
2021/11/30 19:40:18;;;;;;;8.93;5.47;;;11.00;99.90;;;;;;5012182;28;20584;-84
2021/11/30 19:42:45;;;;;;;15.10;6.13;;;11.00;99.90;;;;;;5009825;28;20583;-83
2021/11/30 19:45:15;;;;;;;10.43;6.33;;;11.00;99.90;;;;;;5012562;28;20208;-82
2021/11/30 19:47:45;;;;;;;11.67;6.43;;;10.90;99.90;;;;;;5012346;28;20670;-79
2021/11/30 19:50:12;;;;;;;10.03;6.43;;;10.90;99.90;;;;;;4991621;28;20201;-81
2021/11/30 19:52:39;;;;;;;12.43;7.07;;;10.90;99.90;;;;;;4999711;28;20232;-81
2021/11/30 19:55:07;;;;;;;10.83;6.43;;;10.90;99.90;;;;;;4991663;28;20230;-82
2021/11/30 19:57:35;;;;;;;10.63;6.60;;;10.90;99.90;;;;;;4992632;28;20215;-80
2021/11/30 20:00:18;;;;;;;12.17;7.20;;;10.90;99.90;;;;;;4992637;28;20565;-79
2021/11/30 20:05:30;;;;;;;12.40;6.47;;;10.90;99.90;;;;;;4992520;28;20247;-80
2021/11/30 20:07:57;;;;;;;7.20;6.40;;;10.90;99.90;;;;;;4992449;28;20204;-80
2021/11/30 20:10:25;;;;;;;10.60;6.90;;;10.80;99.90;;;;;;4991529;28;20189;-81
2021/11/30 20:12:52;;;;;;;7.03;6.27;;;10.70;99.90;;;;;;4992766;28;20212;-79
2021/11/30 20:15:29;;;;;;;8.23;6.27;;;10.70;99.90;;;;;;4992375;28;20691;-79
2021/11/30 20:18:00;;;;;;;8.30;6.87;;;10.70;99.90;;;;;;4993270;28;20656;-80
2021/11/30 20:20:28;;;;;;;7.53;6.17;;;10.70;99.90;;;;;;4992930;28;20193;-82
2021/11/30 20:22:56;;;;;;;8.37;6.87;;;10.70;99.90;;;;;;4992936;28;20212;-82
2021/11/30 20:25:29;;;;;;;7.30;6.53;;;10.70;99.90;;;;;;4992408;28;20295;-82
2021/11/30 20:27:57;;;;;;;7.73;6.60;;;10.70;99.90;;;;;;4993072;28;20204;-84
2021/11/30 20:30:25;;;;;;;6.93;6.23;;;10.70;99.90;;;;;;4993139;28;20192;-84
2021/11/30 20:32:55;;;;;;;8.10;6.03;;;10.70;99.90;;;;;;4992648;28;20197;-82
2021/11/30 20:41:01;;;;;;;8.47;5.40;;;10.60;99.90;;;;;;4996508;28;20255;-85
2021/11/30 20:43:32;;;;;;;7.90;4.93;;;10.70;99.90;;;;;;4996086;28;20210;-84
2021/11/30 20:46:02;;;;;;;7.07;4.87;;;10.70;99.90;;;;;;4996155;28;20204;-85
2021/11/30 20:48:30;;;;;;;9.00;5.23;;;10.70;99.90;;;;;;4995957;28;20224;-84
2021/11/30 20:50:59;;;;;;;7.97;4.60;;;10.80;99.90;;;;;;4995979;28;20218;-83
2021/11/30 20:53:27;;;;;;;8.67;3.53;;;10.70;99.90;;;;;;4995947;28;20213;-81
2021/11/30 20:55:54;;;;;;;6.37;4.03;;;10.80;99.90;;;;;;4996412;28;20259;-81
2021/11/30 20:58:22;;;;;;;9.13;3.80;;;10.80;99.90;;;;;;4995951;28;20297;-80
2021/11/30 21:00:50;;;;;;;6.40;3.40;;;10.80;99.90;;;;;;4996690;28;20578;-81
2021/11/30 21:03:17;;;;;;;5.40;2.67;;;10.80;99.90;;;;;;4996779;28;20188;-83
2021/11/30 21:05:45;;;;;;;3.10;2.80;;;10.80;99.90;;;;;;4996294;28;20238;-85
2021/11/30 21:08:13;;;;;;;9.17;3.73;;;10.80;99.90;;;;;;4996270;28;20329;-85
2021/11/30 21:10:47;;;;;;;5.77;3.27;;;10.90;99.90;;;;;;4995468;28;20197;-86
2021/11/30 21:13:15;;;;;;;7.50;3.47;;;10.90;99.90;;;;;;4995945;28;20244;-85
2021/11/30 21:15:42;;;;;;;6.30;3.00;;;10.90;99.90;;;;;;4978643;28;20205;-85
2021/11/30 21:18:09;;;;;;;7.97;3.23;;;10.90;99.90;;;;;;4998049;28;20200;-81
2021/11/30 21:20:39;;;;;;;4.83;2.90;;;10.90;99.90;;;;;;5007055;28;20292;-84
2021/11/30 21:23:11;;;;;;;5.30;2.80;;;10.80;99.90;;;;;;5014378;28;20214;-85
2021/11/30 21:25:42;;;;;;;6.13;3.17;;;10.90;99.90;;;;;;5014407;28;20224;-86
2021/11/30 21:28:10;;;;;;;3.70;2.50;;;10.90;99.90;;;;;;5015267;28;20275;-84
2021/11/30 21:30:39;;;;;;;3.13;2.83;;;10.90;99.90;;;;;;5015072;28;20197;-82
2021/11/30 21:33:07;;;;;;;3.53;2.77;;;10.90;99.90;;;;;;5014820;28;20222;-83
2021/11/30 21:35:40;;;;;;;3.27;2.87;;;10.90;99.90;;;;;;5014438;28;20200;-84
2021/11/30 21:38:08;;;;;;;10.57;2.93;;;10.90;99.90;;;;;;5014940;28;20215;-85
2021/11/30 21:40:42;;;;;;;2.50;2.30;;;10.90;99.90;;;;;;5012748;28;20649;-81
2021/11/30 21:43:09;;;;;;;2.83;2.60;;;10.90;99.90;;;;;;5014571;28;20290;-85
2021/11/30 21:45:39;;;;;;;3.00;2.40;;;10.80;99.90;;;;;;5014507;28;20204;-83
2021/11/30 21:48:08;;;;;;;3.67;2.40;;;10.80;99.90;;;;;;5015247;28;20600;-84
2021/11/30 21:50:38;;;;;;;2.40;2.20;;;10.80;99.90;;;;;;5014007;28;20225;-84
2021/11/30 21:53:10;;;;;;;5.27;2.57;;;10.80;99.90;;;;;;5014247;28;20694;-84
2021/11/30 21:55:39;;;;;;;4.33;3.13;;;10.80;99.90;;;;;;5014219;28;20647;-84
2021/11/30 21:58:14;;;;;;;4.97;4.57;;;10.80;99.90;;;;;;5014264;28;20203;-84
2021/11/30 22:00:49;;;;;;;7.17;6.47;;;10.80;99.90;;;;;;5014117;28;20234;-83
2021/11/30 22:03:18;;;;;;;7.30;6.60;;;10.80;99.90;;;;;;5014991;28;20214;-78
2021/11/30 22:05:46;;;;;;;6.53;5.97;;;10.80;99.90;;;;;;5017129;28;20659;-81
2021/11/30 22:08:13;;;;;;;5.80;5.40;;;10.80;99.90;;;;;;5015041;28;20291;-79
2021/11/30 22:10:43;;;;;;;4.43;4.13;;;10.80;99.90;;;;;;5015053;28;20208;-80
2021/11/30 22:13:10;;;;;;;4.17;3.17;;;10.80;99.90;;;;;;5014313;28;20235;-80
2021/11/30 22:15:39;;;;;;;2.80;2.43;;;10.80;99.90;;;;;;5013884;28;20208;-81
2021/11/30 22:18:14;;;;;;;3.77;2.73;;;10.80;99.90;;;;;;5015141;28;20203;-81
2021/11/30 22:20:47;;;;;;;3.57;2.70;;;10.80;99.90;;;;;;5018837;28;20188;-80
2021/11/30 22:23:15;;;;;;;5.37;1.80;;;10.80;99.90;;;;;;5021237;28;20578;-80
2021/11/30 22:25:44;;;;;;;3.93;2.10;;;10.80;99.90;;;;;;5018429;28;20210;-81
2021/11/30 22:28:11;;;;;;;5.33;1.87;;;10.80;99.90;;;;;;5001122;28;20702;-80
2021/11/30 22:30:49;;;;;;;2.23;1.83;;;10.80;99.90;;;;;;5001764;28;20199;-80
2021/11/30 22:33:16;;;;;;;4.50;1.70;;;10.80;99.90;;;;;;5024376;28;20697;-80
2021/11/30 22:35:49;;;;;;;2.37;1.40;;;10.70;99.90;;;;;;5021863;28;20210;-80
2021/11/30 22:38:22;;;;;;;2.00;1.40;;;10.70;99.90;;;;;;5020061;28;20188;-79
2021/11/30 22:40:50;;;;;;;2.87;1.67;;;10.70;99.90;;;;;;5014996;28;20212;-81
2021/11/30 22:43:18;;;;;;;2.30;2.00;;;10.70;99.90;;;;;;5013626;28;20672;-81
2021/11/30 22:45:58;;;;;;;1.93;1.77;;;10.70;99.90;;;;;;5013732;28;20203;-81
2021/11/30 22:48:26;;;;;;;3.37;1.57;;;10.70;99.90;;;;;;5014286;28;20196;-81
2021/11/30 22:50:54;;;;;;;1.53;1.20;;;10.70;99.90;;;;;;5014094;28;20661;-80
2021/11/30 22:53:27;;;;;;;2.73;1.60;;;10.70;99.90;;;;;;5015177;28;20737;-82
2021/11/30 22:55:56;;;;;;;1.73;1.50;;;10.70;99.90;;;;;;5016289;28;20230;-79
2021/11/30 22:58:33;;;;;;;2.10;1.30;;;10.70;99.90;;;;;;4999798;28;20268;-79
2021/11/30 23:01:02;;;;;;;3.20;1.50;;;10.70;99.90;;;;;;5016210;28;20207;-79
2021/11/30 23:03:29;;;;;;;3.17;1.63;;;10.70;99.90;;;;;;5017480;28;20215;-79
2021/11/30 23:05:58;;;;;;;2.97;1.50;;;10.70;99.90;;;;;;5016422;28;20228;-79
2021/11/30 23:08:27;;;;;;;1.87;1.77;;;10.70;99.90;;;;;;5008846;28;20200;-80
2021/11/30 23:10:54;;;;;;;3.33;1.80;;;10.70;99.90;;;;;;4999122;28;20212;-79
2021/11/30 23:13:22;;;;;;;2.07;1.40;;;10.70;99.90;;;;;;4985321;28;20235;-80
2021/11/30 23:15:55;;;;;;;1.53;1.43;;;10.70;99.90;;;;;;5004261;28;20605;-80
2021/11/30 23:18:32;;;;;;;1.70;1.47;;;10.70;99.90;;;;;;5003531;28;20224;-79
2021/11/30 23:20:59;;;;;;;1.47;1.37;;;10.60;99.90;;;;;;5000695;28;20644;-79
2021/11/30 23:23:33;;;;;;;2.40;1.20;;;10.50;99.90;;;;;;5004528;28;20283;-79
2021/11/30 23:26:24;;;;;;;4.13;1.73;;;10.50;99.90;;;;;;5003444;28;20441;-80
2021/11/30 23:29:36;;;;;;;3.17;2.00;;;10.60;99.90;;;;;;4994076;28;20223;-82
2021/11/30 23:32:05;;;;;;;3.60;3.30;;;10.60;99.90;;;;;;5010902;28;20777;-80
2021/11/30 23:34:43;;;;;;;5.10;3.80;;;10.50;99.90;;;;;;5011814;28;20207;-80
2021/11/30 23:37:17;;;;;;;4.23;3.83;;;10.50;99.90;;;;;;5010500;28;20205;-80
2021/11/30 23:39:50;;;;;;;4.30;3.90;;;10.50;99.90;;;;;;5009402;28;20211;-80
2021/11/30 23:42:21;;;;;;;4.27;3.97;;;10.50;99.90;;;;;;5009814;28;20193;-80
2021/11/30 23:44:51;;;;;;;5.37;3.63;;;10.50;99.90;;;;;;5005146;28;20204;-80
2021/11/30 23:47:23;;;;;;;4.43;4.03;;;10.60;99.90;;;;;;5009242;28;20448;-80
2021/11/30 23:49:54;;;;;;;4.57;4.17;;;10.70;99.90;;;;;;5008204;28;20216;-80
2021/11/30 23:52:26;;;;;;;5.17;4.50;;;10.80;99.90;;;;;;5006663;28;20276;-80
2021/11/30 23:54:55;;;;;;;5.23;4.90;;;10.60;99.90;;;;;;5005478;28;20214;-80
2021/11/30 23:57:36;;;;;;;5.23;4.77;;;10.50;99.90;;;;;;5008975;28;20208;-80
